Warrendale, Pennsylvania
Current Conditions -  °F | °C
As of 11:35 AM on Thursday 29 Jan 2015 (Local Time) from KBTP Reporting Station
Overcast Overcast  
Wind Chill: 25°   Ceiling: 3200
Heat Index: 32°   Visibility: 9mi
Dew Point: 18°   Wind: 8mph
Humidity: 55%   Direction: 160°SSE
Pressure: 29.93"   Gusts: NA
Location:  40.65°N, 80.08°W
Report Text: KBTP 291635Z AUTO 16007KT 9SM SCT027 BKN032 OVC060 00/M08 A2993 RMK AO1
Loading
Personal Weather Stations






























Interactive Weather Map New forecast layout! Learn more

10-Day Weather Forecast

Advertisements
Track Severe Weather on mobile